PWSweather.com
Personal Weather Stations
Station Observations
CANDIOTINO
Barrio Candioti Norte, Santa FeAR 3000

Barrio Candioti NorteSanta FeAR 3000

Lat: -31.632778, Lon: -60.695556

Elevation: 69

Station Type: WH-1081

http://www.eltiempoensantafe.com.ar

High Low Average
Temperature 82.0°F27.8°C 60.8°F16.0°C 70.0°F21.1°C
Dew Point 66.8°F19.3°C 47.9°F8.8°C 58.8°F14.9°C
Winds 6.9 mph 11.1 kmh 0.7 mph 1.1 kmh 3.0 mph E4.8 kmh E
Wind Gusts 13.0 mph20.9 kmh 3.8 mph6.1 kmh 7.0 mph11.3 kmh
Humidity 84% 53% 68%
Pressure 29.79 in1008.8 mb 29.53 in1000.0 mb -
Precipitation 0.09 in2.3 mm - -
Hour Temp Dew Point Humidity Winds Wind Gusts Pressure Precip Precip Rate Daily Precip Total
12:00 AM 63.9°F17.7°C 47.9°F8.8°C 56% 1.6 mph ENE2.6 kmh ENE 4.5 mph7.2 kmh 29.79 in1008.8 mb 0.00 in0.0 mm 0.00 in0.0 mm 0.00 in0.0 mm
12:15 AM 63.7°F17.6°C 48.2°F9.0°C 57% 1.6 mph ENE2.6 kmh ENE 5.4 mph8.7 kmh 29.78 in1008.5 mb 0.00 in0.0 mm 0.00 in0.0 mm 0.00 in0.0 mm
12:30 AM 63.7°F17.6°C 48.6°F9.2°C 58% 2.2 mph NE3.5 kmh NE 5.4 mph8.7 kmh 29.78 in1008.5 mb 0.00 in0.0 mm 0.00 in0.0 mm 0.00 in0.0 mm
12:45 AM 63.7°F17.6°C 49.1°F9.5°C 59% 0.7 mph NE1.1 kmh NE 6.0 mph9.7 kmh 29.79 in1008.8 mb 0.00 in0.0 mm 0.00 in0.0 mm 0.00 in0.0 mm
01:00 AM 63.7°F17.6°C 50.0°F10.0°C 61% 1.6 mph NE2.6 kmh NE 7.6 mph12.2 kmh 29.78 in1008.5 mb 0.00 in0.0 mm 0.00 in0.0 mm 0.00 in0.0 mm
01:15 AM 63.7°F17.6°C 50.4°F10.2°C 62% 3.1 mph ENE5.0 kmh ENE 8.3 mph13.4 kmh 29.78 in1008.5 mb 0.00 in0.0 mm 0.00 in0.0 mm 0.00 in0.0 mm
01:30 AM 63.5°F17.5°C 50.3°F10.2°C 62% 3.1 mph NE5.0 kmh NE 7.6 mph12.2 kmh 29.78 in1008.5 mb 0.00 in0.0 mm 0.00 in0.0 mm 0.00 in0.0 mm
01:45 AM 63.5°F17.5°C 50.7°F10.4°C 63% 2.2 mph NE3.5 kmh NE 7.6 mph12.2 kmh 29.77 in1008.1 mb 0.00 in0.0 mm 0.00 in0.0 mm 0.00 in0.0 mm
02:00 AM 63.1°F17.3°C 50.8°F10.4°C 64% 2.2 mph NE3.5 kmh NE 7.6 mph12.2 kmh 29.77 in1008.1 mb 0.00 in0.0 mm 0.00 in0.0 mm 0.00 in0.0 mm
02:15 AM 62.8°F17.1°C 51.3°F10.7°C 66% 2.2 mph E3.5 kmh E 6.9 mph11.1 kmh 29.76 in1007.8 mb 0.00 in0.0 mm 0.00 in0.0 mm 0.00 in0.0 mm
02:30 AM 63.0°F17.2°C 51.8°F11.0°C 67% 1.6 mph E2.6 kmh E 5.4 mph8.7 kmh 29.76 in1007.8 mb 0.00 in0.0 mm 0.00 in0.0 mm 0.00 in0.0 mm
02:45 AM 63.0°F17.2°C 51.8°F11.0°C 67% 3.1 mph NE5.0 kmh NE 6.9 mph11.1 kmh 29.75 in1007.5 mb 0.00 in0.0 mm 0.00 in0.0 mm 0.00 in0.0 mm
03:00 AM 62.6°F17.0°C 51.9°F11.1°C 68% 2.2 mph NE3.5 kmh NE 8.3 mph13.4 kmh 29.74 in1007.1 mb 0.00 in0.0 mm 0.00 in0.0 mm 0.00 in0.0 mm
03:15 AM 62.2°F16.8°C 52.3°F11.3°C 70% 3.1 mph NE5.0 kmh NE 6.9 mph11.1 kmh 29.74 in1007.1 mb 0.00 in0.0 mm 0.00 in0.0 mm 0.00 in0.0 mm
03:30 AM 61.9°F16.6°C 52.4°F11.3°C 71% 3.1 mph ENE5.0 kmh ENE 5.4 mph8.7 kmh 29.73 in1006.8 mb 0.00 in0.0 mm 0.00 in0.0 mm 0.00 in0.0 mm
03:45 AM 61.0°F16.1°C 52.3°F11.3°C 73% 2.2 mph E3.5 kmh E 5.4 mph8.7 kmh 29.73 in1006.8 mb 0.00 in0.0 mm 0.00 in0.0 mm 0.00 in0.0 mm
04:00 AM 60.8°F16.0°C 52.5°F11.4°C 74% 0.7 mph ENE1.1 kmh ENE 4.5 mph7.2 kmh 29.73 in1006.8 mb 0.00 in0.0 mm 0.00 in0.0 mm 0.00 in0.0 mm
04:15 AM 61.0°F16.1°C 52.6°F11.4°C 74% 1.6 mph E2.6 kmh E 4.5 mph7.2 kmh 29.71 in1006.1 mb 0.00 in0.0 mm 0.00 in0.0 mm 0.00 in0.0 mm
04:30 AM 62.1°F16.7°C 53.7°F12.1°C 74% 1.6 mph NE2.6 kmh NE 5.4 mph8.7 kmh 29.71 in1006.1 mb 0.00 in0.0 mm 0.00 in0.0 mm 0.00 in0.0 mm
04:45 AM 62.4°F16.9°C 53.7°F12.1°C 73% 2.2 mph NE3.5 kmh NE 5.4 mph8.7 kmh 29.71 in1006.1 mb 0.00 in0.0 mm 0.00 in0.0 mm 0.00 in0.0 mm
05:00 AM 62.1°F16.7°C 53.3°F11.8°C 73% 3.1 mph NNE5.0 kmh NNE 6.0 mph9.7 kmh 29.71 in1006.1 mb 0.00 in0.0 mm 0.00 in0.0 mm 0.00 in0.0 mm
05:15 AM 62.1°F16.7°C 53.7°F12.1°C 74% 2.2 mph NE3.5 kmh NE 6.0 mph9.7 kmh 29.71 in1006.1 mb 0.00 in0.0 mm 0.00 in0.0 mm 0.00 in0.0 mm
05:30 AM 61.9°F16.6°C 53.5°F11.9°C 74% 3.1 mph NE5.0 kmh NE 5.4 mph8.7 kmh 29.71 in1006.1 mb 0.00 in0.0 mm 0.00 in0.0 mm 0.00 in0.0 mm
05:45 AM 62.1°F16.7°C 54.1°F12.3°C 75% 1.6 mph N2.6 kmh N 4.5 mph7.2 kmh 29.71 in1006.1 mb 0.00 in0.0 mm 0.00 in0.0 mm 0.00 in0.0 mm
06:00 AM 61.7°F16.5°C 53.7°F12.1°C 75% 0.7 mph E1.1 kmh E 3.8 mph6.1 kmh 29.71 in1006.1 mb 0.00 in0.0 mm 0.00 in0.0 mm 0.00 in0.0 mm
06:15 AM 61.5°F16.4°C 53.5°F11.9°C 75% 2.2 mph E3.5 kmh E 3.8 mph6.1 kmh 29.72 in1006.4 mb 0.00 in0.0 mm 0.00 in0.0 mm 0.00 in0.0 mm
06:30 AM 61.7°F16.5°C 54.1°F12.3°C 76% 2.2 mph ENE3.5 kmh ENE 5.4 mph8.7 kmh 29.72 in1006.4 mb 0.00 in0.0 mm 0.00 in0.0 mm 0.00 in0.0 mm
06:45 AM 62.2°F16.8°C 54.2°F12.3°C 75% 1.6 mph NE2.6 kmh NE 5.4 mph8.7 kmh 29.72 in1006.4 mb 0.00 in0.0 mm 0.00 in0.0 mm 0.00 in0.0 mm
07:00 AM 62.2°F16.8°C 53.9°F12.2°C 74% 2.2 mph NE3.5 kmh NE 4.5 mph7.2 kmh 29.73 in1006.8 mb 0.00 in0.0 mm 0.00 in0.0 mm 0.00 in0.0 mm
07:15 AM 62.1°F16.7°C 54.1°F12.3°C 75% 1.6 mph NNE2.6 kmh NNE 4.5 mph7.2 kmh 29.73 in1006.8 mb 0.00 in0.0 mm 0.00 in0.0 mm 0.00 in0.0 mm
07:30 AM 62.2°F16.8°C 54.2°F12.3°C 75% 1.6 mph ENE2.6 kmh ENE 4.5 mph7.2 kmh 29.73 in1006.8 mb 0.00 in0.0 mm 0.00 in0.0 mm 0.00 in0.0 mm
07:45 AM 62.4°F16.9°C 54.4°F12.4°C 75% 1.6 mph E2.6 kmh E 4.5 mph7.2 kmh 29.72 in1006.4 mb 0.00 in0.0 mm 0.00 in0.0 mm 0.00 in0.0 mm
08:00 AM 63.0°F17.2°C 54.6°F12.6°C 74% 3.1 mph NE5.0 kmh NE 3.8 mph6.1 kmh 29.73 in1006.8 mb 0.00 in0.0 mm 0.00 in0.0 mm 0.00 in0.0 mm
08:15 AM 63.7°F17.6°C 54.9°F12.7°C 73% 3.1 mph NE5.0 kmh NE 5.4 mph8.7 kmh 29.73 in1006.8 mb 0.00 in0.0 mm 0.00 in0.0 mm 0.00 in0.0 mm
08:30 AM 65.5°F18.6°C 56.2°F13.4°C 72% 3.1 mph E5.0 kmh E 6.0 mph9.7 kmh 29.72 in1006.4 mb 0.00 in0.0 mm 0.00 in0.0 mm 0.00 in0.0 mm
08:45 AM 66.2°F19.0°C 56.1°F13.4°C 70% 2.2 mph NE3.5 kmh NE 5.4 mph8.7 kmh 29.72 in1006.4 mb 0.00 in0.0 mm 0.00 in0.0 mm 0.00 in0.0 mm
09:00 AM 66.6°F19.2°C 55.3°F12.9°C 67% 1.6 mph NE2.6 kmh NE 5.4 mph8.7 kmh 29.72 in1006.4 mb 0.00 in0.0 mm 0.00 in0.0 mm 0.00 in0.0 mm
09:15 AM 67.3°F19.6°C 56.4°F13.6°C 68% 1.6 mph ENE2.6 kmh ENE 5.4 mph8.7 kmh 29.71 in1006.1 mb 0.00 in0.0 mm 0.00 in0.0 mm 0.00 in0.0 mm
09:30 AM 68.9°F20.5°C 57.1°F13.9°C 66% 1.6 mph E2.6 kmh E 6.0 mph9.7 kmh 29.71 in1006.1 mb 0.00 in0.0 mm 0.00 in0.0 mm 0.00 in0.0 mm
09:45 AM 69.3°F20.7°C 57.0°F13.9°C 65% 3.1 mph ENE5.0 kmh ENE 6.9 mph11.1 kmh 29.71 in1006.1 mb 0.00 in0.0 mm 0.00 in0.0 mm 0.00 in0.0 mm
10:00 AM 71.6°F22.0°C 57.5°F14.2°C 61% 3.1 mph NE5.0 kmh NE 9.2 mph14.8 kmh 29.70 in1005.8 mb 0.00 in0.0 mm 0.00 in0.0 mm 0.00 in0.0 mm
10:15 AM 71.6°F22.0°C 57.5°F14.2°C 61% 5.4 mph E8.7 kmh E 8.3 mph13.4 kmh 29.70 in1005.8 mb 0.00 in0.0 mm 0.00 in0.0 mm 0.00 in0.0 mm
10:30 AM 74.5°F23.6°C 58.8°F14.9°C 58% 3.1 mph E5.0 kmh E 9.2 mph14.8 kmh 29.69 in1005.4 mb 0.00 in0.0 mm 0.00 in0.0 mm 0.00 in0.0 mm
10:45 AM 75.6°F24.2°C 58.3°F14.6°C 55% 5.4 mph NNE8.7 kmh NNE 9.8 mph15.8 kmh 29.68 in1005.1 mb 0.00 in0.0 mm 0.00 in0.0 mm 0.00 in0.0 mm
11:00 AM 75.9°F24.4°C 58.6°F14.8°C 55% 5.4 mph NE8.7 kmh NE 10.7 mph17.2 kmh 29.68 in1005.1 mb 0.00 in0.0 mm 0.00 in0.0 mm 0.00 in0.0 mm
11:15 AM 76.8°F24.9°C 59.5°F15.3°C 55% 3.1 mph NE5.0 kmh NE 11.4 mph18.3 kmh 29.67 in1004.7 mb 0.00 in0.0 mm 0.00 in0.0 mm 0.00 in0.0 mm
11:30 AM 78.3°F25.7°C 59.8°F15.4°C 53% 4.5 mph NNE7.2 kmh NNE 13.0 mph20.9 kmh 29.67 in1004.7 mb 0.00 in0.0 mm 0.00 in0.0 mm 0.00 in0.0 mm
11:45 AM 77.9°F25.5°C 59.4°F15.2°C 53% 6.0 mph NE9.7 kmh NE 13.0 mph20.9 kmh 29.66 in1004.4 mb 0.00 in0.0 mm 0.00 in0.0 mm 0.00 in0.0 mm
12:00 PM 78.6°F25.9°C 60.1°F15.6°C 53% 4.5 mph NE7.2 kmh NE 13.0 mph20.9 kmh 29.66 in1004.4 mb 0.00 in0.0 mm 0.00 in0.0 mm 0.00 in0.0 mm
12:15 PM 77.9°F25.5°C 60.0°F15.6°C 54% 3.8 mph ENE6.1 kmh ENE 11.4 mph18.3 kmh 29.65 in1004.1 mb 0.00 in0.0 mm 0.00 in0.0 mm 0.00 in0.0 mm
12:30 PM 78.4°F25.8°C 60.5°F15.8°C 54% 6.9 mph NE11.1 kmh NE 11.4 mph18.3 kmh 29.64 in1003.7 mb 0.00 in0.0 mm 0.00 in0.0 mm 0.00 in0.0 mm
12:45 PM 80.1°F26.7°C 61.4°F16.3°C 53% 4.5 mph NE7.2 kmh NE 9.8 mph15.8 kmh 29.64 in1003.7 mb 0.00 in0.0 mm 0.00 in0.0 mm 0.00 in0.0 mm
01:00 PM 77.7°F25.4°C 60.8°F16.0°C 56% 3.1 mph NE5.0 kmh NE 7.6 mph12.2 kmh 29.64 in1003.7 mb 0.00 in0.0 mm 0.00 in0.0 mm 0.00 in0.0 mm
01:15 PM 76.3°F24.6°C 60.9°F16.1°C 59% 1.6 mph NE2.6 kmh NE 6.0 mph9.7 kmh 29.63 in1003.4 mb 0.00 in0.0 mm 0.00 in0.0 mm 0.00 in0.0 mm
01:30 PM 74.8°F23.8°C 62.3°F16.8°C 65% 5.4 mph NE8.7 kmh NE 11.4 mph18.3 kmh 29.62 in1003.0 mb 0.00 in0.0 mm 0.00 in0.0 mm 0.00 in0.0 mm
01:45 PM 72.1°F22.3°C 62.2°F16.8°C 71% 2.2 mph NE3.5 kmh NE 10.7 mph17.2 kmh 29.61 in1002.7 mb 0.07 in1.8 mm 0.28 in7.1 mm 0.07 in1.8 mm
02:00 PM 70.0°F21.1°C 62.8°F17.1°C 78% 3.8 mph E6.1 kmh E 8.3 mph13.4 kmh 29.57 in1001.4 mb 0.09 in2.3 mm 0.03 in0.8 mm 0.09 in2.3 mm
02:15 PM 70.3°F21.3°C 64.6°F18.1°C 82% 0.7 mph NNE1.1 kmh NNE 3.8 mph6.1 kmh 29.59 in1002.0 mb 0.09 in2.3 mm 0.00 in0.0 mm 0.09 in2.3 mm
02:30 PM 71.8°F22.1°C 64.6°F18.1°C 78% 2.2 mph E3.5 kmh E 6.0 mph9.7 kmh 29.58 in1001.7 mb 0.09 in2.3 mm 0.00 in0.0 mm 0.09 in2.3 mm
02:45 PM 72.9°F22.7°C 64.5°F18.1°C 75% 1.6 mph E2.6 kmh E 6.9 mph11.1 kmh 29.57 in1001.4 mb 0.02 in0.5 mm 0.00 in0.0 mm 0.09 in2.3 mm
03:00 PM 76.3°F24.6°C 65.4°F18.6°C 69% 4.5 mph ESE7.2 kmh ESE 10.7 mph17.2 kmh 29.56 in1001.0 mb 0.00 in0.0 mm 0.00 in0.0 mm 0.09 in2.3 mm
03:15 PM 76.6°F24.8°C 65.3°F18.5°C 68% 3.1 mph E5.0 kmh E 9.2 mph14.8 kmh 29.55 in1000.7 mb 0.00 in0.0 mm 0.00 in0.0 mm 0.09 in2.3 mm
03:30 PM 76.1°F24.5°C 64.4°F18.0°C 67% 3.1 mph ESE5.0 kmh ESE 9.2 mph14.8 kmh 29.55 in1000.7 mb 0.00 in0.0 mm 0.00 in0.0 mm 0.09 in2.3 mm
03:45 PM 78.6°F25.9°C 65.9°F18.8°C 65% 1.6 mph E2.6 kmh E 7.6 mph12.2 kmh 29.54 in1000.3 mb 0.00 in0.0 mm 0.00 in0.0 mm 0.09 in2.3 mm
04:00 PM 77.4°F25.2°C 64.3°F17.9°C 64% 2.2 mph E3.5 kmh E 8.3 mph13.4 kmh 29.53 in1000.0 mb 0.00 in0.0 mm 0.00 in0.0 mm 0.09 in2.3 mm
04:15 PM 79.3°F26.3°C 65.2°F18.4°C 62% 4.5 mph E7.2 kmh E 9.2 mph14.8 kmh 29.53 in1000.0 mb 0.00 in0.0 mm 0.00 in0.0 mm 0.09 in2.3 mm
04:30 PM 80.2°F26.8°C 66.1°F18.9°C 62% 4.5 mph ESE7.2 kmh ESE 8.3 mph13.4 kmh 29.54 in1000.3 mb 0.00 in0.0 mm 0.00 in0.0 mm 0.09 in2.3 mm
04:45 PM 81.5°F27.5°C 66.8°F19.3°C 61% 2.2 mph E3.5 kmh E 7.6 mph12.2 kmh 29.55 in1000.7 mb 0.00 in0.0 mm 0.00 in0.0 mm 0.09 in2.3 mm
05:00 PM 81.9°F27.7°C 66.2°F19.0°C 59% 2.2 mph E3.5 kmh E 6.0 mph9.7 kmh 29.55 in1000.7 mb 0.00 in0.0 mm 0.00 in0.0 mm 0.09 in2.3 mm
05:15 PM 82.0°F27.8°C 65.4°F18.6°C 57% 2.2 mph NE3.5 kmh NE 6.0 mph9.7 kmh 29.55 in1000.7 mb 0.00 in0.0 mm 0.00 in0.0 mm 0.09 in2.3 mm
05:30 PM 79.5°F26.4°C 64.9°F18.3°C 61% 2.2 mph ESE3.5 kmh ESE 6.0 mph9.7 kmh 29.55 in1000.7 mb 0.00 in0.0 mm 0.00 in0.0 mm 0.09 in2.3 mm
05:45 PM 78.4°F25.8°C 64.8°F18.2°C 63% 4.5 mph SE7.2 kmh SE 6.0 mph9.7 kmh 29.55 in1000.7 mb 0.00 in0.0 mm 0.00 in0.0 mm 0.09 in2.3 mm
06:00 PM 78.1°F25.6°C 65.4°F18.6°C 65% 2.2 mph SE3.5 kmh SE 5.4 mph8.7 kmh 29.56 in1001.0 mb 0.00 in0.0 mm 0.00 in0.0 mm 0.09 in2.3 mm
06:15 PM 77.9°F25.5°C 65.2°F18.4°C 65% 3.1 mph SE5.0 kmh SE 5.4 mph8.7 kmh 29.56 in1001.0 mb 0.00 in0.0 mm 0.00 in0.0 mm 0.09 in2.3 mm
06:30 PM 76.6°F24.8°C 64.9°F18.3°C 67% 3.8 mph E6.1 kmh E 5.4 mph8.7 kmh 29.55 in1000.7 mb 0.00 in0.0 mm 0.00 in0.0 mm 0.09 in2.3 mm
06:45 PM 75.6°F24.2°C 64.7°F18.2°C 69% 3.1 mph E5.0 kmh E 7.6 mph12.2 kmh 29.56 in1001.0 mb 0.00 in0.0 mm 0.00 in0.0 mm 0.09 in2.3 mm
07:00 PM 74.5°F23.6°C 64.9°F18.3°C 72% 2.2 mph E3.5 kmh E 6.0 mph9.7 kmh 29.56 in1001.0 mb 0.00 in0.0 mm 0.00 in0.0 mm 0.09 in2.3 mm
07:15 PM 73.6°F23.1°C 65.2°F18.4°C 75% 0.7 mph E1.1 kmh E 5.4 mph8.7 kmh 29.56 in1001.0 mb 0.00 in0.0 mm 0.00 in0.0 mm 0.09 in2.3 mm
07:30 PM 73.2°F22.9°C 64.5°F18.1°C 74% 2.2 mph E3.5 kmh E 5.4 mph8.7 kmh 29.57 in1001.4 mb 0.00 in0.0 mm 0.00 in0.0 mm 0.09 in2.3 mm
07:45 PM 72.7°F22.6°C 64.3°F17.9°C 75% 1.6 mph ESE2.6 kmh ESE 4.5 mph7.2 kmh 29.57 in1001.4 mb 0.00 in0.0 mm 0.00 in0.0 mm 0.09 in2.3 mm
08:00 PM 73.0°F22.8°C 64.7°F18.2°C 75% 3.1 mph SE5.0 kmh SE 4.5 mph7.2 kmh 29.58 in1001.7 mb 0.00 in0.0 mm 0.00 in0.0 mm 0.09 in2.3 mm
08:15 PM 73.0°F22.8°C 63.9°F17.7°C 73% 3.1 mph ESE5.0 kmh ESE 6.0 mph9.7 kmh 29.57 in1001.4 mb 0.00 in0.0 mm 0.00 in0.0 mm 0.09 in2.3 mm
08:30 PM 72.7°F22.6°C 63.6°F17.6°C 73% 3.8 mph ESE6.1 kmh ESE 6.9 mph11.1 kmh 29.58 in1001.7 mb 0.00 in0.0 mm 0.00 in0.0 mm 0.09 in2.3 mm
08:45 PM 72.3°F22.4°C 63.2°F17.3°C 73% 4.5 mph SE7.2 kmh SE 6.9 mph11.1 kmh 29.59 in1002.0 mb 0.00 in0.0 mm 0.00 in0.0 mm 0.09 in2.3 mm
09:00 PM 72.1°F22.3°C 63.4°F17.4°C 74% 3.8 mph SE6.1 kmh SE 5.4 mph8.7 kmh 29.59 in1002.0 mb 0.00 in0.0 mm 0.00 in0.0 mm 0.09 in2.3 mm
09:15 PM 71.8°F22.1°C 63.1°F17.3°C 74% 3.1 mph SE5.0 kmh SE 6.0 mph9.7 kmh 29.59 in1002.0 mb 0.00 in0.0 mm 0.00 in0.0 mm 0.09 in2.3 mm
09:30 PM 71.2°F21.8°C 63.3°F17.4°C 76% 5.4 mph ESE8.7 kmh ESE 6.0 mph9.7 kmh 29.59 in1002.0 mb 0.00 in0.0 mm 0.00 in0.0 mm 0.09 in2.3 mm
09:45 PM 71.2°F21.8°C 63.3°F17.4°C 76% 3.8 mph SE6.1 kmh SE 8.3 mph13.4 kmh 29.60 in1002.4 mb 0.00 in0.0 mm 0.00 in0.0 mm 0.09 in2.3 mm
10:00 PM 70.7°F21.5°C 63.2°F17.3°C 77% 3.8 mph ESE6.1 kmh ESE 8.3 mph13.4 kmh 29.60 in1002.4 mb 0.00 in0.0 mm 0.00 in0.0 mm 0.09 in2.3 mm
10:15 PM 70.2°F21.2°C 63.0°F17.2°C 78% 4.5 mph ESE7.2 kmh ESE 8.3 mph13.4 kmh 29.61 in1002.7 mb 0.00 in0.0 mm 0.00 in0.0 mm 0.09 in2.3 mm
10:30 PM 69.8°F21.0°C 62.7°F17.1°C 78% 4.5 mph ESE7.2 kmh ESE 9.8 mph15.8 kmh 29.60 in1002.4 mb 0.00 in0.0 mm 0.00 in0.0 mm 0.09 in2.3 mm
10:45 PM 69.3°F20.7°C 63.2°F17.3°C 81% 3.1 mph E5.0 kmh E 6.9 mph11.1 kmh 29.61 in1002.7 mb 0.00 in0.0 mm 0.00 in0.0 mm 0.09 in2.3 mm
11:00 PM 69.1°F20.6°C 63.4°F17.4°C 82% 2.2 mph ESE3.5 kmh ESE 6.9 mph11.1 kmh 29.60 in1002.4 mb 0.00 in0.0 mm 0.00 in0.0 mm 0.09 in2.3 mm
11:15 PM 68.9°F20.5°C 63.6°F17.6°C 83% 6.0 mph ESE9.7 kmh ESE 9.8 mph15.8 kmh 29.60 in1002.4 mb 0.00 in0.0 mm 0.00 in0.0 mm 0.09 in2.3 mm
11:30 PM 68.7°F20.4°C 63.7°F17.6°C 84% 5.4 mph ESE8.7 kmh ESE 6.9 mph11.1 kmh 29.60 in1002.4 mb 0.00 in0.0 mm 0.00 in0.0 mm 0.09 in2.3 mm
11:45 PM 68.7°F20.4°C 63.7°F17.6°C 84% 3.1 mph ESE5.0 kmh ESE 8.3 mph13.4 kmh 29.60 in1002.4 mb 0.00 in0.0 mm 0.00 in0.0 mm 0.09 in2.3 mm